Time;durP1;ratioP1;P1;durP2;ratioP2;P2;SDS_P1;SDS_P2;PMS_P1;PMS_P2;Temp;Humidity;BMP_temperature;BMP_pressure;BME280_temperature;BME280_humidity;BME280_pressure;Samples;Min_cycle;Max_cycle;Signal;HPM_P1;HPM_P2
2021/03/15 00:07:30;;;;;;;1999.90;999.90;;;;;;;6.02;78.15;100331.34;15806838;28;20669;-62
2021/03/15 00:15:04;;;;;;;1999.90;999.90;;;;;;;5.98;78.01;100332.31;15759197;28;20072;-64
2021/03/15 00:22:35;;;;;;;1999.90;999.90;;;;;;;5.79;78.29;100329.63;15812392;28;20043;-59
2021/03/15 00:30:10;;;;;;;1999.90;999.90;;;;;;;5.65;78.55;100323.31;15799614;28;20048;-61
2021/03/15 00:37:43;;;;;;;1999.90;999.90;;;;;;;5.86;77.65;100320.91;15764218;28;20048;-61
2021/03/15 00:45:17;;;;;;;1999.90;999.90;;;;;;;5.85;77.56;100310.97;15772920;28;20116;-64
2021/03/15 00:52:48;;;;;;;1999.90;999.90;;;;;;;5.91;76.57;100323.59;15776498;28;20073;-61
2021/03/15 01:00:25;;;;;;;1999.90;999.90;;;;;;;5.73;76.41;100309.56;15795585;28;20084;-58
2021/03/15 01:08:23;;;;;;;1999.90;999.90;;;;;;;5.43;76.83;100318.53;15733652;28;20105;-62
2021/03/15 01:15:55;;;;;;;1999.90;999.90;;;;;;;5.49;76.36;100320.84;15802392;28;20062;-62
2021/03/15 01:23:27;;;;;;;1999.90;999.90;;;;;;;5.42;76.87;100311.34;15788360;28;20070;-62
2021/03/15 01:31:00;;;;;;;1999.90;999.90;;;;;;;5.59;77.29;100302.41;15809576;28;20420;-60
2021/03/15 01:38:31;;;;;;;1999.90;999.90;;;;;;;5.59;77.53;100289.38;15807777;28;20044;-60
2021/03/15 01:46:03;;;;;;;1999.90;999.90;;;;;;;5.58;77.95;100292.44;15808377;28;20084;-62
2021/03/15 01:53:35;;;;;;;1999.90;999.90;;;;;;;5.76;77.36;100284.00;15806407;28;20110;-60
2021/03/15 02:01:08;;;;;;;1999.90;999.90;;;;;;;5.81;77.02;100280.31;15808232;28;20043;-62
2021/03/15 02:08:39;;;;;;;1999.90;999.90;;;;;;;5.86;76.88;100276.63;15807236;28;20194;-60
2021/03/15 02:16:19;;;;;;;1999.90;999.90;;;;;;;5.92;76.75;100264.31;15812506;28;20076;-61
2021/03/15 02:23:53;;;;;;;1999.90;999.90;;;;;;;5.92;76.72;100256.00;15808932;28;20178;-62
2021/03/15 02:32:06;;;;;;;1999.90;999.90;;;;;;;5.95;76.92;100255.38;15806554;28;20428;-62
2021/03/15 02:39:44;;;;;;;1999.90;999.90;;;;;;;5.78;76.73;100239.41;15805313;28;20040;-61
2021/03/15 02:47:21;;;;;;;1999.90;999.90;;;;;;;5.73;76.86;100247.81;15805091;28;20077;-62
2021/03/15 02:54:55;;;;;;;1999.90;999.90;;;;;;;5.57;77.59;100250.13;15804121;28;20040;-61
2021/03/15 03:02:27;;;;;;;1999.90;999.90;;;;;;;5.49;77.33;100250.84;15804958;28;20069;-61
2021/03/15 03:10:01;;;;;;;1999.90;999.90;;;;;;;5.43;77.48;100241.03;15803457;28;20044;-59
2021/03/15 03:17:38;;;;;;;1999.90;999.90;;;;;;;5.35;76.84;100244.53;15803811;28;20068;-61
2021/03/15 03:25:15;;;;;;;1999.90;999.90;;;;;;;5.36;77.10;100246.16;15761268;28;20040;-62
2021/03/15 03:41:47;;;;;;;1999.90;999.90;;;;;;;4.88;78.04;100243.81;15756754;22;20054;-60
2021/03/15 03:49:19;;;;;;;1999.90;999.90;;;;;;;4.91;77.39;100244.03;15736719;28;20143;-60
2021/03/15 03:56:56;;;;;;;1999.90;999.90;;;;;;;4.85;77.48;100231.44;15845013;22;20054;-65
2021/03/15 04:04:34;;;;;;;1999.90;999.90;;;;;;;4.80;77.53;100227.97;15801664;28;20097;-65
2021/03/15 04:12:11;;;;;;;1999.90;999.90;;;;;;;4.77;77.22;100237.66;15802794;28;20048;-65
2021/03/15 04:19:49;;;;;;;1999.90;999.90;;;;;;;4.64;77.70;100233.78;15802434;28;20043;-65
2021/03/15 04:27:23;;;;;;;1999.90;999.90;;;;;;;4.54;78.12;100228.44;15800463;28;20047;-65
2021/03/15 04:34:55;;;;;;;1999.90;999.90;;;;;;;4.76;77.14;100235.22;15782850;28;20039;-65
2021/03/15 04:42:28;;;;;;;1999.90;999.90;;;;;;;4.79;77.98;100231.84;15800916;28;20123;-64
2021/03/15 04:50:00;;;;;;;1999.90;999.90;;;;;;;4.85;77.52;100231.44;15782960;28;20044;-64
2021/03/15 04:57:33;;;;;;;1999.90;999.90;;;;;;;4.75;77.23;100228.88;15801258;28;20044;-63
2021/03/15 05:05:07;;;;;;;1999.90;999.90;;;;;;;4.62;77.57;100221.41;15783506;28;20044;-66
2021/03/15 05:12:41;;;;;;;1999.90;999.90;;;;;;;4.71;76.96;100216.81;15800893;28;20048;-65
2021/03/15 05:20:15;;;;;;;1999.90;999.90;;;;;;;4.55;77.27;100209.91;15798884;28;20060;-64
2021/03/15 05:27:50;;;;;;;;;;;;;;;4.58;77.10;100218.41;15805547;28;20539;-63
2021/03/15 05:35:22;;;;;;;1999.90;999.90;;;;;;;4.61;77.04;100225.28;15804685;28;19924;-66
2021/03/15 05:43:10;;;;;;;1999.90;999.90;;;;;;;5.03;76.45;100215.06;15800550;28;20043;-65
2021/03/15 05:51:11;;;;;;;1999.90;999.90;;;;;;;5.24;76.13;100226.50;15799899;28;20044;-66
2021/03/15 05:59:05;;;;;;;1999.90;999.90;;;;;;;5.30;75.79;100225.25;15801370;28;20135;-65
2021/03/15 06:06:38;;;;;;;1999.90;999.90;;;;;;;5.20;75.10;100218.00;15810843;28;20052;-65
2021/03/15 06:14:12;;;;;;;1999.90;999.90;;;;;;;5.29;75.63;100218.91;15792967;28;20089;-66
2021/03/15 06:21:44;;;;;;;1999.90;999.90;;;;;;;5.41;75.17;100223.91;15807687;28;20040;-65
2021/03/15 06:29:17;;;;;;;1999.90;999.90;;;;;;;5.58;74.80;100229.63;15811420;28;20067;-65
2021/03/15 06:36:49;;;;;;;1999.90;999.90;;;;;;;5.55;74.68;100226.66;15806194;28;20147;-66
2021/03/15 06:44:21;;;;;;;1999.90;999.90;;;;;;;5.53;74.87;100226.16;15808053;28;20453;-66
2021/03/15 06:52:00;;;;;;;1999.90;999.90;;;;;;;5.62;74.30;100214.00;15804434;28;20082;-65
2021/03/15 06:59:46;;;;;;;1999.90;999.90;;;;;;;5.77;74.24;100212.84;15807036;28;20551;-65
2021/03/15 07:07:23;;;;;;;1999.90;999.90;;;;;;;5.85;73.56;100214.06;15805057;28;20044;-66
2021/03/15 07:15:06;;;;;;;1999.90;999.90;;;;;;;6.20;72.39;100226.22;15804634;28;20044;-64
2021/03/15 07:22:46;;;;;;;1999.90;999.90;;;;;;;6.22;72.88;100230.31;15821745;28;20048;-68
2021/03/15 07:30:30;;;;;;;1999.90;999.90;;;;;;;6.71;71.62;100227.66;15803680;28;20044;-63
2021/03/15 07:38:02;;;;;;;1999.90;999.90;;;;;;;6.20;72.78;100220.69;15803530;28;20044;-65
2021/03/15 07:45:36;;;;;;;1999.90;999.90;;;;;;;6.34;73.11;100230.56;15805068;28;20043;-66
2021/03/15 07:53:08;;;;;;;1999.90;999.90;;;;;;;6.67;71.72;100227.50;15805630;28;20121;-66
2021/03/15 08:00:40;;;;;;;1999.90;999.90;;;;;;;7.61;69.07;100236.41;15803510;28;20128;-65
2021/03/15 08:08:12;;;;;;;1999.90;999.90;;;;;;;7.93;69.50;100247.09;15782224;28;20356;-65
2021/03/15 08:15:46;;;;;;;1999.90;999.90;;;;;;;7.95;69.49;100255.91;15738080;28;20072;-64
2021/03/15 08:23:20;;;;;;;1999.90;999.90;;;;;;;7.84;69.00;100257.38;15737325;28;20041;-65
2021/03/15 08:30:57;;;;;;;1999.90;999.90;;;;;;;7.96;69.33;100257.53;15737968;28;20178;-65
2021/03/15 08:38:30;;;;;;;1999.90;999.90;;;;;;;7.91;68.80;100249.34;15741396;28;20071;-65
2021/03/15 08:46:05;;;;;;;1999.90;999.90;;;;;;;7.57;69.53;100246.53;15763824;28;20488;-66
2021/03/15 08:53:48;;;;;;;1999.90;999.90;;;;;;;7.74;70.04;100241.84;15778358;28;20165;-65
2021/03/15 09:01:24;;;;;;;1999.90;999.90;;;;;;;7.40;70.24;100231.50;15744207;28;20040;-65
2021/03/15 09:08:56;;;;;;;1999.90;999.90;;;;;;;7.81;69.16;100233.00;15786228;28;20040;-64
2021/03/15 09:16:30;;;;;;;1999.90;999.90;;;;;;;8.05;68.78;100224.19;15782090;28;20051;-64
2021/03/15 09:24:48;;;;;;;1999.90;999.90;;;;;;;8.85;67.43;100214.19;15743149;28;20400;-67
2021/03/15 09:32:27;;;;;;;1999.90;999.90;;;;;;;8.46;67.02;100220.06;15779373;28;20051;-66
2021/03/15 09:40:01;;;;;;;1999.90;999.90;;;;;;;8.55;67.69;100216.13;15807085;28;20135;-65
2021/03/15 09:47:35;;;;;;;1999.90;999.90;;;;;;;8.80;67.24;100206.06;15793809;28;20056;-64
2021/03/15 09:55:07;;;;;;;1999.90;999.90;;;;;;;8.78;66.47;100222.25;15794059;28;20047;-68
2021/03/15 10:02:41;;;;;;;1999.90;999.90;;;;;;;9.11;66.01;100216.06;15809681;28;20071;-67
2021/03/15 10:10:39;;;;;;;1999.90;999.90;;;;;;;9.29;64.82;100208.44;15786642;28;20062;-61
2021/03/15 10:18:30;;;;;;;1999.90;999.90;;;;;;;9.20;64.32;100206.50;15810989;28;20044;-67
2021/03/15 10:26:06;;;;;;;1999.90;999.90;;;;;;;10.03;63.20;100205.75;15763381;28;20147;-66
2021/03/15 10:33:53;;;;;;;1999.90;999.90;;;;;;;10.93;61.45;100193.78;15766126;28;20051;-62
2021/03/15 10:41:30;;;;;;;1999.90;999.90;;;;;;;11.22;60.28;100195.53;15753793;28;20512;-64
2021/03/15 10:49:16;;;;;;;1999.90;999.90;;;;;;;11.12;59.19;100184.84;15787413;28;20048;-63
2021/03/15 10:57:12;;;;;;;1999.90;999.90;;;;;;;9.93;61.90;100186.66;15788061;28;20036;-67
2021/03/15 11:04:51;;;;;;;1999.90;999.90;;;;;;;10.17;61.05;100173.97;15776516;28;20570;-65
2021/03/15 11:12:40;;;;;;;1999.90;999.90;;;;;;;9.79;60.74;100169.38;15776045;28;20032;-67
2021/03/15 11:20:14;;;;;;;1999.90;999.90;;;;;;;9.79;61.06;100177.75;15782358;28;20118;-67
2021/03/15 11:27:50;;;;;;;1999.90;999.90;;;;;;;11.70;57.77;100179.88;15769395;28;20094;-68
2021/03/15 11:35:23;;;;;;;;;;;;;;;13.77;49.93;100169.25;15759973;28;20044;-67
2021/03/15 11:43:07;;;;;;;1999.90;999.90;;;;;;;15.65;44.38;100167.44;15785763;28;19920;-65
2021/03/15 11:50:41;;;;;;;1999.90;999.90;;;;;;;13.22;48.02;100164.78;15768655;28;20394;-65
2021/03/15 11:58:21;;;;;;;1999.90;999.90;;;;;;;13.41;50.15;100158.44;15767532;28;20066;-65
2021/03/15 12:05:56;;;;;;;1999.90;999.90;;;;;;;12.69;50.57;100153.06;15767379;28;20052;-64
2021/03/15 12:13:40;;;;;;;1999.90;999.90;;;;;;;12.92;48.60;100142.88;15747501;28;20044;-67
2021/03/15 12:21:13;;;;;;;1999.90;999.90;;;;;;;13.26;47.29;100158.09;15810670;28;20143;-68
2021/03/15 12:28:50;;;;;;;1999.90;999.90;;;;;;;11.96;49.93;100145.09;15759887;28;20037;-67
2021/03/15 12:36:31;;;;;;;1999.90;999.90;;;;;;;12.86;47.29;100149.09;15764800;28;20075;-68
2021/03/15 12:44:06;;;;;;;1999.90;999.90;;;;;;;10.94;53.11;100145.19;15760041;28;20047;-68
2021/03/15 12:51:39;;;;;;;1999.90;999.90;;;;;;;10.94;53.13;100145.19;15734002;28;20155;-67
2021/03/15 12:59:12;;;;;;;;;;;;;;;10.68;53.54;100122.38;15746071;28;20500;-68
2021/03/15 13:06:50;;;;;;;1999.90;999.90;;;;;;;10.79;52.31;100137.50;15760654;28;20296;-66
2021/03/15 13:14:36;;;;;;;1999.90;999.90;;;;;;;10.19;53.69;100136.22;15772914;28;20439;-68
2021/03/15 13:22:21;;;;;;;1999.90;999.90;;;;;;;10.44;56.28;100130.75;15785019;28;20061;-66
2021/03/15 13:29:54;;;;;;;;;;;;;;;9.74;60.69;100136.19;15777553;28;20052;-66
2021/03/15 13:37:27;;;;;;;1999.90;999.90;;;;;;;9.67;61.69;100125.56;15783316;28;20019;-66
2021/03/15 13:45:25;;;;;;;1999.90;999.90;;;;;;;9.58;63.08;100133.19;15784053;28;20048;-66
2021/03/15 13:53:00;;;;;;;1999.90;999.90;;;;;;;9.34;64.32;100131.09;15772460;28;20048;-66
2021/03/15 14:00:34;;;;;;;1999.90;999.90;;;;;;;9.77;63.32;100130.72;15745751;28;20083;-65
2021/03/15 14:08:29;;;;;;;1999.90;999.90;;;;;;;9.40;63.43;100124.19;15799393;28;20175;-66
2021/03/15 14:16:01;;;;;;;1999.90;999.90;;;;;;;10.20;61.44;100125.88;15788760;28;20105;-67
2021/03/15 14:23:33;;;;;;;1999.90;999.90;;;;;;;10.98;59.33;100098.66;15771055;28;20040;-65
2021/03/15 14:31:07;;;;;;;1999.90;999.90;;;;;;;10.56;59.09;100092.50;15782509;28;20113;-66
2021/03/15 14:38:43;;;;;;;1999.90;999.90;;;;;;;10.03;60.63;100088.69;15788475;28;20036;-65
2021/03/15 14:46:14;;;;;;;1999.90;999.90;;;;;;;9.70;61.67;100091.47;15788201;28;20052;-65
2021/03/15 14:54:05;;;;;;;1999.90;999.90;;;;;;;10.05;61.69;100077.19;15781437;28;20082;-67
2021/03/15 15:01:40;;;;;;;1999.90;999.90;;;;;;;9.86;60.49;100069.34;15796671;28;20119;-65
2021/03/15 15:09:19;;;;;;;1999.90;999.90;;;;;;;8.51;68.65;100091.97;15786937;28;20043;-65
2021/03/15 15:17:00;;;;;;;1999.90;999.90;;;;;;;7.96;72.86;100101.94;15765764;28;20055;-67
2021/03/15 15:24:34;;;;;;;1999.90;999.90;;;;;;;7.36;74.08;100105.59;15760028;28;20500;-67
2021/03/15 15:32:06;;;;;;;1999.90;999.90;;;;;;;7.92;73.46;100097.38;15768565;28;20040;-66
2021/03/15 15:39:39;;;;;;;1999.90;999.90;;;;;;;8.01;73.67;100087.88;15784367;28;20450;-67
2021/03/15 15:47:10;;;;;;;1999.90;999.90;;;;;;;8.32;73.14;100070.13;15782300;28;20040;-66
2021/03/15 15:54:43;;;;;;;1999.90;999.90;;;;;;;8.50;72.75;100080.03;15808190;22;20072;-57
2021/03/15 16:02:14;;;;;;;1999.90;999.90;;;;;;;8.39;72.27;100067.66;15820731;28;20472;-56
2021/03/15 16:09:46;;;;;;;1999.90;999.90;;;;;;;8.21;74.17;100093.88;15799644;28;20048;-59
2021/03/15 16:17:19;;;;;;;1999.90;999.90;;;;;;;8.26;73.95;100113.16;15779299;28;20372;-60
2021/03/15 16:24:52;;;;;;;1999.90;999.90;;;;;;;7.92;75.54;100114.03;15798999;28;20051;-57
2021/03/15 16:32:23;;;;;;;1999.90;999.90;;;;;;;8.01;75.71;100117.63;15773157;28;20080;-57
2021/03/15 16:39:59;;;;;;;1999.90;999.90;;;;;;;7.72;76.16;100118.34;15766746;28;20051;-57
2021/03/15 16:47:31;;;;;;;1999.90;999.90;;;;;;;7.97;75.66;100133.31;15768194;28;20036;-58
2021/03/15 16:55:06;;;;;;;1999.90;999.90;;;;;;;7.40;75.77;100114.94;15774350;28;20080;-59
2021/03/15 17:02:38;;;;;;;1999.90;999.90;;;;;;;7.52;76.70;100126.19;15786999;28;20052;-56
2021/03/15 17:10:12;;;;;;;1999.90;999.90;;;;;;;7.59;76.56;100145.13;15795346;28;20072;-58
2021/03/15 17:17:44;;;;;;;1999.90;999.90;;;;;;;7.65;76.18;100156.88;15791579;28;20048;-55
2021/03/15 17:25:16;;;;;;;1999.90;999.90;;;;;;;7.79;76.41;100168.63;15776396;28;20044;-57
2021/03/15 17:32:48;;;;;;;1999.90;999.90;;;;;;;7.79;76.82;100180.56;15778237;28;20076;-54
2021/03/15 17:40:21;;;;;;;1999.90;999.90;;;;;;;7.29;78.04;100188.53;15793942;28;20044;-58
2021/03/15 17:47:52;;;;;;;1999.90;999.90;;;;;;;7.29;77.54;100198.81;15760747;28;20146;-55
2021/03/15 17:55:25;;;;;;;1999.90;999.90;;;;;;;7.50;76.94;100217.31;15760779;28;20063;-59
2021/03/15 18:02:56;;;;;;;1999.90;999.90;;;;;;;7.15;78.58;100215.59;15788337;28;20040;-58
2021/03/15 18:10:29;;;;;;;1999.90;999.90;;;;;;;7.17;77.61;100238.28;15784253;28;20117;-58
2021/03/15 18:18:01;;;;;;;1999.90;999.90;;;;;;;7.22;78.03;100216.78;15808793;28;20539;-55
2021/03/15 18:25:33;;;;;;;1999.90;999.90;;;;;;;7.43;76.64;100225.31;15806700;28;20680;-58
2021/03/15 18:33:07;;;;;;;1999.90;999.90;;;;;;;7.29;77.36;100244.03;15787502;28;20383;-59
2021/03/15 18:40:39;;;;;;;1999.90;999.90;;;;;;;7.30;77.31;100240.13;15736513;28;20085;-59
2021/03/15 18:48:10;;;;;;;1999.90;999.90;;;;;;;7.35;77.19;100244.72;15798099;28;20047;-55
2021/03/15 18:55:43;;;;;;;1999.90;999.90;;;;;;;7.06;78.85;100248.03;15799472;28;20040;-57
2021/03/15 19:03:14;;;;;;;1999.90;999.90;;;;;;;6.97;78.93;100250.78;15799220;28;20048;-61
2021/03/15 19:10:47;;;;;;;1999.90;999.90;;;;;;;7.16;78.86;100256.88;15781701;28;20059;-61
2021/03/15 19:18:19;;;;;;;1999.90;999.90;;;;;;;6.98;79.22;100274.59;15799007;28;20404;-60
2021/03/15 19:25:51;;;;;;;1999.90;999.90;;;;;;;7.10;79.13;100282.34;15780982;28;20071;-60
2021/03/15 19:33:22;;;;;;;1999.90;999.90;;;;;;;7.10;78.57;100293.44;15800350;28;20451;-61
2021/03/15 19:40:55;;;;;;;1999.90;999.90;;;;;;;6.93;79.45;100296.94;15781495;28;20380;-55
2021/03/15 19:48:27;;;;;;;1999.90;999.90;;;;;;;6.99;79.75;100317.06;15800705;28;20101;-59
2021/03/15 19:55:59;;;;;;;1999.90;999.90;;;;;;;6.99;79.73;100326.19;15781375;28;20047;-54
2021/03/15 20:03:30;;;;;;;1999.90;999.90;;;;;;;7.02;79.39;100338.59;15828893;28;20066;-55
2021/03/15 20:11:04;;;;;;;1999.90;999.90;;;;;;;6.80;79.47;100333.91;15793865;28;20072;-58
2021/03/15 20:18:35;;;;;;;1999.90;999.90;;;;;;;6.83;79.50;100350.72;15781136;28;20479;-62
2021/03/15 20:26:09;;;;;;;1999.90;999.90;;;;;;;6.97;78.93;100355.38;15799551;28;20408;-60
2021/03/15 20:33:41;;;;;;;1999.90;999.90;;;;;;;6.63;79.96;100357.59;15762754;28;20051;-60
2021/03/15 20:41:16;;;;;;;1999.90;999.90;;;;;;;6.85;79.76;100373.41;15797743;28;20051;-62
2021/03/15 20:48:47;;;;;;;1999.90;999.90;;;;;;;6.82;80.18;100384.31;15779178;28;20368;-56
2021/03/15 20:56:21;;;;;;;1999.90;999.90;;;;;;;6.93;79.80;100392.06;15796882;28;20115;-60
2021/03/15 21:03:53;;;;;;;1999.90;999.90;;;;;;;7.04;79.76;100384.31;15796383;28;20044;-60
2021/03/15 21:11:25;;;;;;;1999.90;999.90;;;;;;;6.98;79.50;100391.09;15795919;28;20511;-59
2021/03/15 21:18:57;;;;;;;1999.90;999.90;;;;;;;7.02;79.74;100396.84;15777790;28;20415;-60
2021/03/15 21:26:29;;;;;;;1999.90;999.90;;;;;;;6.95;79.27;100414.75;15777088;28;20395;-54
2021/03/15 21:34:01;;;;;;;1999.90;999.90;;;;;;;7.12;79.00;100419.63;15785647;28;20044;-60
2021/03/15 21:41:33;;;;;;;1999.90;999.90;;;;;;;7.09;78.94;100430.53;15806207;28;20127;-59
2021/03/15 21:49:05;;;;;;;1999.90;999.90;;;;;;;7.14;78.69;100433.16;15807714;28;20134;-57
2021/03/15 21:56:37;;;;;;;1999.90;999.90;;;;;;;7.08;78.55;100442.75;15829797;22;20040;-65
2021/03/15 22:04:09;;;;;;;1999.90;999.90;;;;;;;7.07;77.54;100450.25;15771400;28;20051;-64
2021/03/15 22:11:41;;;;;;;1999.90;999.90;;;;;;;7.05;77.18;100455.28;15784200;28;20058;-65
2021/03/15 22:19:13;;;;;;;1999.90;999.90;;;;;;;6.81;77.69;100463.13;15755966;28;20060;-66
2021/03/15 22:26:45;;;;;;;1999.90;999.90;;;;;;;6.71;78.24;100460.59;15792258;28;20066;-67
2021/03/15 22:34:17;;;;;;;1999.90;999.90;;;;;;;6.84;77.50;100462.47;15788481;28;20545;-65
2021/03/15 22:41:49;;;;;;;1999.90;999.90;;;;;;;6.71;78.40;100472.50;15770409;28;20052;-65
2021/03/15 22:49:21;;;;;;;1999.90;999.90;;;;;;;6.98;77.28;100482.66;15772733;28;20052;-67
2021/03/15 22:56:53;;;;;;;1999.90;999.90;;;;;;;7.01;77.58;100493.16;15807795;28;20079;-67
2021/03/15 23:04:25;;;;;;;1999.90;999.90;;;;;;;6.83;77.30;100500.50;15800558;28;20499;-66
2021/03/15 23:11:57;;;;;;;1999.90;999.90;;;;;;;6.88;76.85;100508.72;15797674;28;20170;-66
2021/03/15 23:19:32;;;;;;;1999.90;999.90;;;;;;;6.81;77.37;100513.84;15786395;28;20041;-67
2021/03/15 23:27:05;;;;;;;1999.90;999.90;;;;;;;6.66;77.24;100525.28;15806094;28;20051;-65
2021/03/15 23:34:36;;;;;;;1999.90;999.90;;;;;;;6.69;76.94;100527.47;15787147;28;20135;-65
2021/03/15 23:42:10;;;;;;;1999.90;999.90;;;;;;;6.66;76.68;100539.97;15770754;28;20052;-66
2021/03/15 23:49:41;;;;;;;1999.90;999.90;;;;;;;6.78;77.82;100552.50;15777697;28;20050;-67
2021/03/15 23:57:32;;;;;;;1999.90;999.90;;;;;;;6.13;78.71;100572.94;15803624;28;20040;-65
